Time,TemperatureF,DewpointF,PressureIn,WindDirection,WindDirectionDegrees,WindSpeedMPH,WindSpeedGustMPH,Humidity,HourlyPrecipIn,Conditions,Clouds,dailyrainin,SolarRadiationWatts/m^2,SoftwareType,DateUTC
2013-01-13 00:02:00,18.0,-6.0,-100.00,SW,235,6.0,16.0,34,0.00,,,0.00,0.000000,,2013-01-13 08:02:00,
2013-01-13 00:42:00,16.0,-11.0,-100.00,WNW,301,5.0,15.0,29,0.00,,,0.00,0.000000,,2013-01-13 08:42:00,
2013-01-13 00:52:00,16.0,-11.0,-100.00,WNW,301,5.0,15.0,29,0.00,,,0.00,0.000000,,2013-01-13 08:52:00,
2013-01-13 01:42:00,16.0,-13.0,-100.00,WSW,254,6.0,11.0,26,0.00,,,0.00,0.000000,,2013-01-13 09:42:00,
2013-01-13 01:52:00,16.0,-13.0,-100.00,WSW,254,6.0,11.0,26,0.00,,,0.00,0.000000,,2013-01-13 09:52:00,
2013-01-13 02:02:00,16.0,-13.0,-100.00,WSW,254,6.0,11.0,26,0.00,,,0.00,0.000000,,2013-01-13 10:02:00,
2013-01-13 02:42:00,18.0,-14.0,-100.00,West,269,6.0,14.0,22,0.00,,,0.00,0.000000,,2013-01-13 10:42:00,
2013-01-13 02:52:00,18.0,-14.0,-100.00,West,269,6.0,14.0,22,0.00,,,0.00,0.000000,,2013-01-13 10:52:00,
2013-01-13 03:42:00,17.0,-13.0,-100.00,WSW,256,6.0,12.0,24,0.00,,,0.00,0.000000,,2013-01-13 11:42:00,
2013-01-13 03:52:00,17.0,-13.0,-100.00,WSW,256,6.0,12.0,24,0.00,,,0.00,0.000000,,2013-01-13 11:52:00,
2013-01-13 04:12:00,17.0,-13.0,-100.00,WSW,256,6.0,12.0,24,0.00,,,0.00,0.000000,,2013-01-13 12:12:00,
2013-01-13 04:22:00,17.0,-13.0,-100.00,WSW,256,6.0,12.0,24,0.00,,,0.00,0.000000,,2013-01-13 12:22:00,
2013-01-13 04:42:00,18.0,-16.0,-100.00,WNW,290,8.0,14.0,20,0.00,,,0.00,0.000000,,2013-01-13 12:42:00,
2013-01-13 04:53:00,18.0,-16.0,-100.00,WNW,290,8.0,14.0,20,0.00,,,0.00,0.000000,,2013-01-13 12:53:00,
2013-01-13 05:43:00,16.0,-16.0,-100.00,WSW,257,4.0,13.0,22,0.00,,,0.00,0.000000,,2013-01-13 13:43:00,
2013-01-13 05:53:00,16.0,-16.0,-100.00,WSW,257,4.0,13.0,22,0.00,,,0.00,0.000000,,2013-01-13 13:53:00,
2013-01-13 06:43:00,15.0,-14.0,-100.00,WNW,289,6.0,9.0,26,0.00,,,0.00,0.000000,,2013-01-13 14:43:00,
2013-01-13 06:53:00,15.0,-14.0,-100.00,WNW,289,6.0,9.0,26,0.00,,,0.00,0.000000,,2013-01-13 14:53:00,
2013-01-13 07:03:00,15.0,-14.0,-100.00,WNW,289,6.0,9.0,26,0.00,,,0.00,0.000000,,2013-01-13 15:03:00,
2013-01-13 07:43:00,15.0,-14.0,-100.00,WNW,287,4.0,8.0,25,0.00,,,0.00,1.000000,,2013-01-13 15:43:00,
2013-01-13 07:53:00,15.0,-14.0,-100.00,WNW,287,4.0,8.0,25,0.00,,,0.00,1.000000,,2013-01-13 15:53:00,
2013-01-13 08:03:00,15.0,-14.0,-100.00,WNW,287,4.0,8.0,25,0.00,,,0.00,1.000000,,2013-01-13 16:03:00,
2013-01-13 08:43:00,25.0,-8.0,-100.00,NW,306,2.0,8.0,23,0.00,,,0.00,86.000000,,2013-01-13 16:43:00,
2013-01-13 08:53:00,25.0,-8.0,-100.00,NW,306,2.0,8.0,23,0.00,,,0.00,86.000000,,2013-01-13 16:53:00,
2013-01-13 09:43:00,34.0,-4.0,-100.00,SE,131,2.0,5.0,19,-99.99,,,0.00,325.000000,,2013-01-13 17:43:00,
2013-01-13 09:53:00,34.0,-4.0,-100.00,SE,131,2.0,5.0,19,-99.99,,,0.00,325.000000,,2013-01-13 17:53:00,
2013-01-13 10:43:00,35.0,0.0,-100.00,WSW,245,3.0,5.0,22,-99.99,,,0.00,511.000000,,2013-01-13 18:43:00,
2013-01-13 10:53:00,35.0,0.0,-100.00,WSW,245,3.0,5.0,22,-99.99,,,0.00,511.000000,,2013-01-13 18:53:00,
2013-01-13 11:43:00,38.0,5.0,-100.00,ESE,106,2.0,7.0,25,-99.99,,,0.00,556.000000,,2013-01-13 19:43:00,
2013-01-13 11:53:00,38.0,5.0,-100.00,ESE,106,2.0,7.0,25,-99.99,,,0.00,556.000000,,2013-01-13 19:53:00,
2013-01-13 12:02:00,38.0,5.0,-100.00,ESE,106,2.0,7.0,25,-99.99,,,0.00,556.000000,,2013-01-13 20:02:00,
2013-01-13 12:43:00,39.0,3.0,-100.00,SE,137,3.0,8.0,22,0.00,,,0.00,589.000000,,2013-01-13 20:43:00,
2013-01-13 12:53:00,39.0,3.0,-100.00,SE,137,3.0,8.0,22,0.00,,,0.00,589.000000,,2013-01-13 20:53:00,
2013-01-13 13:03:00,39.0,3.0,-100.00,SE,137,3.0,8.0,22,0.00,,,0.00,589.000000,,2013-01-13 21:03:00,
2013-01-13 13:43:00,36.0,3.0,-100.00,West,278,4.0,8.0,24,-99.99,,,0.00,707.000000,,2013-01-13 21:43:00,
2013-01-13 13:53:00,36.0,3.0,-100.00,West,278,4.0,8.0,24,-99.99,,,0.00,707.000000,,2013-01-13 21:53:00,
2013-01-13 14:02:00,36.0,3.0,-100.00,West,278,4.0,8.0,24,-99.99,,,0.00,707.000000,,2013-01-13 22:02:00,
2013-01-13 14:12:00,36.0,3.0,-100.00,West,278,4.0,8.0,24,-99.99,,,0.00,707.000000,,2013-01-13 22:12:00,
2013-01-13 14:22:00,36.0,3.0,-100.00,West,278,4.0,8.0,24,-99.99,,,0.00,707.000000,,2013-01-13 22:22:00,
2013-01-13 14:52:00,40.0,10.0,-100.00,East,83,3.0,11.0,28,0.00,,,0.00,494.000000,,2013-01-13 22:52:00,
2013-01-13 15:43:00,32.0,-2.0,-100.00,SE,130,8.0,15.0,22,-99.99,,,0.00,452.000000,,2013-01-13 23:43:00,
2013-01-13 15:53:00,32.0,-2.0,-100.00,SE,130,8.0,15.0,22,-99.99,,,0.00,452.000000,,2013-01-13 23:53:00,
2013-01-13 16:02:00,32.0,-2.0,-100.00,SE,130,8.0,15.0,22,-99.99,,,0.00,452.000000,,2013-01-14 00:02:00,
2013-01-13 16:12:00,32.0,-2.0,-100.00,SE,130,8.0,15.0,22,-99.99,,,0.00,452.000000,,2013-01-14 00:12:00,
2013-01-13 16:22:00,32.0,-2.0,-100.00,SE,130,8.0,15.0,22,-99.99,,,0.00,452.000000,,2013-01-14 00:22:00,
2013-01-13 16:43:00,28.0,-4.0,-100.00,East,82,5.0,16.0,24,0.00,,,0.00,243.000000,,2013-01-14 00:43:00,
2013-01-13 16:53:00,28.0,-4.0,-100.00,East,82,5.0,16.0,24,0.00,,,0.00,243.000000,,2013-01-14 00:53:00,
2013-01-13 17:02:00,28.0,-4.0,-100.00,East,82,5.0,16.0,24,0.00,,,0.00,243.000000,,2013-01-14 01:02:00,
2013-01-13 17:12:00,28.0,-4.0,-100.00,East,82,5.0,16.0,24,0.00,,,0.00,243.000000,,2013-01-14 01:12:00,
2013-01-13 17:22:00,28.0,-4.0,-100.00,East,82,5.0,16.0,24,0.00,,,0.00,243.000000,,2013-01-14 01:22:00,
2013-01-13 17:42:00,20.0,-9.0,-100.00,SW,226,4.0,17.0,27,0.00,,,0.00,20.000000,,2013-01-14 01:42:00,
2013-01-13 17:52:00,20.0,-9.0,-100.00,SW,226,4.0,17.0,27,0.00,,,0.00,20.000000,,2013-01-14 01:52:00,
2013-01-13 18:02:00,20.0,-9.0,-100.00,SW,226,4.0,17.0,27,0.00,,,0.00,20.000000,,2013-01-14 02:02:00,
2013-01-13 18:43:00,18.0,-6.0,-100.00,SW,231,6.0,14.0,34,0.00,,,0.00,0.000000,,2013-01-14 02:43:00,
2013-01-13 18:53:00,18.0,-6.0,-100.00,SW,231,6.0,14.0,34,0.00,,,0.00,0.000000,,2013-01-14 02:53:00,
2013-01-13 19:02:00,18.0,-6.0,-100.00,SW,231,6.0,14.0,34,0.00,,,0.00,0.000000,,2013-01-14 03:02:00,
2013-01-13 19:12:00,18.0,-6.0,-100.00,SW,231,6.0,14.0,34,0.00,,,0.00,0.000000,,2013-01-14 03:12:00,
2013-01-13 19:43:00,16.0,-2.0,-100.00,West,267,10.0,15.0,43,0.00,,,0.00,0.000000,,2013-01-14 03:43:00,
2013-01-13 19:53:00,16.0,-2.0,-100.00,West,267,10.0,15.0,43,0.00,,,0.00,0.000000,,2013-01-14 03:53:00,
2013-01-13 20:02:00,16.0,-2.0,-100.00,West,267,10.0,15.0,43,0.00,,,0.00,0.000000,,2013-01-14 04:02:00,
2013-01-13 20:12:00,16.0,-2.0,-100.00,West,267,10.0,15.0,43,0.00,,,0.00,0.000000,,2013-01-14 04:12:00,
2013-01-13 20:22:00,16.0,-2.0,-100.00,West,267,10.0,15.0,43,0.00,,,0.00,0.000000,,2013-01-14 04:22:00,
2013-01-13 20:42:00,15.0,-2.0,-100.00,West,266,10.0,17.0,45,0.00,,,0.00,0.000000,,2013-01-14 04:42:00,
2013-01-13 20:53:00,15.0,-2.0,-100.00,West,266,10.0,17.0,45,0.00,,,0.00,0.000000,,2013-01-14 04:53:00,
2013-01-13 21:03:00,15.0,-2.0,-100.00,West,266,10.0,17.0,45,0.00,,,0.00,0.000000,,2013-01-14 05:03:00,
2013-01-13 21:12:00,15.0,-2.0,-100.00,West,266,10.0,17.0,45,0.00,,,0.00,0.000000,,2013-01-14 05:12:00,
2013-01-13 21:22:00,15.0,-2.0,-100.00,West,266,10.0,17.0,45,0.00,,,0.00,0.000000,,2013-01-14 05:22:00,
2013-01-13 21:43:00,15.0,-3.0,-100.00,West,269,11.0,16.0,44,0.00,,,0.00,0.000000,,2013-01-14 05:43:00,
2013-01-13 21:53:00,15.0,-3.0,-100.00,West,269,11.0,16.0,44,0.00,,,0.00,0.000000,,2013-01-14 05:53:00,
2013-01-13 22:02:00,15.0,-3.0,-100.00,West,269,11.0,16.0,44,0.00,,,0.00,0.000000,,2013-01-14 06:02:00,
2013-01-13 22:12:00,15.0,-3.0,-100.00,West,269,11.0,16.0,44,0.00,,,0.00,0.000000,,2013-01-14 06:12:00,
2013-01-13 22:22:00,15.0,-3.0,-100.00,West,269,11.0,16.0,44,0.00,,,0.00,0.000000,,2013-01-14 06:22:00,
2013-01-13 22:43:00,14.0,-6.0,-100.00,WSW,246,5.0,16.0,40,0.00,,,0.00,0.000000,,2013-01-14 06:43:00,
2013-01-13 22:52:00,14.0,-6.0,-100.00,WSW,246,5.0,16.0,40,0.00,,,0.00,0.000000,,2013-01-14 06:52:00,
2013-01-13 23:02:00,14.0,-6.0,-100.00,WSW,246,5.0,16.0,40,0.00,,,0.00,0.000000,,2013-01-14 07:02:00,
2013-01-13 23:12:00,14.0,-6.0,-100.00,WSW,246,5.0,16.0,40,0.00,,,0.00,0.000000,,2013-01-14 07:12:00,
2013-01-13 23:22:00,14.0,-6.0,-100.00,WSW,246,5.0,16.0,40,0.00,,,0.00,0.000000,,2013-01-14 07:22:00,
2013-01-13 23:43:00,15.0,-7.0,-100.00,West,271,10.0,14.0,37,0.00,,,-99.99,0.000000,,2013-01-14 07:43:00,
2013-01-13 23:52:00,15.0,-7.0,-100.00,West,271,10.0,14.0,37,0.00,,,-99.99,0.000000,,2013-01-14 07:52:00,